Airfield :
LOGIN :

Register | Disclaimer

   EN    FR    IT 

 










Legend :    VFR   Marginal VFR   IFR   Intensive IFR   Very Intensive IFR
Visi :
Ceiling :
>= 8 km
>= 3000ft
5 to 8 km
1000 to 3000 ft
1500m to 5 km
500 to 1000 ft
800 to 1500m
200 to 500 ft
< 800m
< 200 ft
Symbols :   Thunderstorms  Fog  Heavy snow  Heavy precipitations  Wind > 20 kt
SIGMETs :     Misc.  Thunderstorms  Icing  Turbulence  Mountain Waves  Volcanic Ashes






- Airport Elevation : 38 ft
- IATA code : BOH


EGHH - Bournemouth

CURRENT METAR :
  • 181220Z 30005KT 150V260 9999 FEW042 13/02 Q1024

EXPIRED METARs :
  • 181150Z 25004KT 150V260 9999 FEW035 13/03 Q1025
  • 181120Z 21004KT 9999 FEW025 12/04 Q1024
  • 181020Z VRB02KT 9999 SCT035 11/04 Q1025
  • 180950Z VRB02KT 9999 FEW030 11/03 Q1025
  • 180920Z 05004KT 350V100 9999 FEW025 09/03 Q1025
  • 180850Z 03006KT 360V080 9999 FEW025 09/04 Q1024
  • 180820Z 02004KT 340V060 9999 FEW025 09/04 Q1024
  • 180750Z 01005KT 320V070 9999 FEW025 07/04 Q1024

TAF TAF EGHH
Valid from the 18 at 12:00 until the 18 at 21:00 UTC


181104Z 1812/1821 20005KT 9999 FEW035
BECMG 1812/1815 26012KT
ATIS : +44 1202 364 151
Met : +44 1202 364 158 (TAF)



MET'MAP, your aeronautical weather chart ! - Copyright ORBIFLY December 2007 - Disclaimer

ORBIFLY MET'MAP TEAM :

Programming & Development : Alexandra Zaïnal
Original concept : Baudouin d'Aumeries
Technical & hardware support : Manuel Goepfert
Assistance : Marc-Olivier Méhu




SOURCES & CREDITS :

   NOAA